sensor_id;sensor_type;location;lat;lon;timestamp;pressure;altitude;pressure_sealevel;temperature;humidity
21863;BME280;11096;51.338;12.524;2023-08-07T00:01:28;98998.41;;;17.17;100.00
21863;BME280;11096;51.338;12.524;2023-08-07T00:03:54;98993.31;;;17.01;100.00
21863;BME280;11096;51.338;12.524;2023-08-07T00:06:19;98995.06;;;17.09;100.00
21863;BME280;11096;51.338;12.524;2023-08-07T00:08:44;99008.41;;;17.22;100.00
21863;BME280;11096;51.338;12.524;2023-08-07T00:11:10;99000.13;;;17.33;100.00
21863;BME280;11096;51.338;12.524;2023-08-07T00:13:36;99004.78;;;17.23;100.00
21863;BME280;11096;51.338;12.524;2023-08-07T00:16:01;99005.06;;;17.05;100.00
21863;BME280;11096;51.338;12.524;2023-08-07T00:18:28;99008.53;;;17.06;100.00
21863;BME280;11096;51.338;12.524;2023-08-07T00:20:53;99008.59;;;16.98;100.00
21863;BME280;11096;51.338;12.524;2023-08-07T00:23:19;99000.31;;;17.09;100.00
21863;BME280;11096;51.338;12.524;2023-08-07T00:25:44;98997.63;;;17.17;100.00
21863;BME280;11096;51.338;12.524;2023-08-07T00:28:09;98997.50;;;17.33;100.00
21863;BME280;11096;51.338;12.524;2023-08-07T00:30:35;99005.41;;;17.25;100.00
21863;BME280;11096;51.338;12.524;2023-08-07T00:33:00;98997.56;;;17.02;100.00
21863;BME280;11096;51.338;12.524;2023-08-07T00:35:25;99002.75;;;17.10;100.00
21863;BME280;11096;51.338;12.524;2023-08-07T00:37:51;99003.63;;;17.03;100.00
21863;BME280;11096;51.338;12.524;2023-08-07T00:40:17;99005.44;;;17.02;100.00
21863;BME280;11096;51.338;12.524;2023-08-07T00:42:42;99005.19;;;17.12;100.00
21863;BME280;11096;51.338;12.524;2023-08-07T00:45:08;99005.41;;;17.25;100.00
21863;BME280;11096;51.338;12.524;2023-08-07T00:47:33;99002.69;;;17.19;100.00
21863;BME280;11096;51.338;12.524;2023-08-07T00:49:59;98992.00;;;17.43;100.00
21863;BME280;11096;51.338;12.524;2023-08-07T00:52:25;98991.38;;;17.56;99.15
21863;BME280;11096;51.338;12.524;2023-08-07T00:54:50;98989.13;;;17.53;94.99
21863;BME280;11096;51.338;12.524;2023-08-07T00:57:16;98985.75;;;17.59;93.02
21863;BME280;11096;51.338;12.524;2023-08-07T00:59:42;98986.34;;;17.31;91.85
21863;BME280;11096;51.338;12.524;2023-08-07T01:02:09;98988.16;;;17.31;91.96
21863;BME280;11096;51.338;12.524;2023-08-07T01:04:34;98984.69;;;17.68;91.62
21863;BME280;11096;51.338;12.524;2023-08-07T01:07:00;98991.66;;;17.61;90.13
21863;BME280;11096;51.338;12.524;2023-08-07T01:09:25;98997.28;;;17.58;90.24
21863;BME280;11096;51.338;12.524;2023-08-07T01:12:02;98986.50;;;17.53;89.96
21863;BME280;11096;51.338;12.524;2023-08-07T01:14:42;98986.88;;;17.65;89.47
21863;BME280;11096;51.338;12.524;2023-08-07T01:17:16;98991.09;;;17.51;89.62
21863;BME280;11096;51.338;12.524;2023-08-07T01:19:44;98984.00;;;17.36;90.46
21863;BME280;11096;51.338;12.524;2023-08-07T01:22:11;98989.09;;;17.38;90.63
21863;BME280;11096;51.338;12.524;2023-08-07T01:24:38;98989.94;;;17.15;93.55
21863;BME280;11096;51.338;12.524;2023-08-07T01:30:17;99002.69;;;17.19;98.64
21863;BME280;11096;51.338;12.524;2023-08-07T01:32:58;98995.72;;;17.11;97.54
21863;BME280;11096;51.338;12.524;2023-08-07T01:35:27;99004.38;;;17.34;97.45
21863;BME280;11096;51.338;12.524;2023-08-07T01:37:56;99011.66;;;17.24;100.00
21863;BME280;11096;51.338;12.524;2023-08-07T01:40:22;99007.13;;;16.95;100.00
21863;BME280;11096;51.338;12.524;2023-08-07T01:42:49;99012.34;;;17.03;100.00
21863;BME280;11096;51.338;12.524;2023-08-07T01:45:22;99018.75;;;17.01;100.00
21863;BME280;11096;51.338;12.524;2023-08-07T01:47:47;99012.56;;;16.93;100.00
21863;BME280;11096;51.338;12.524;2023-08-07T01:50:13;99017.22;;;16.75;100.00
21863;BME280;11096;51.338;12.524;2023-08-07T01:52:38;99017.38;;;16.73;100.00
21863;BME280;11096;51.338;12.524;2023-08-07T01:55:04;99028.72;;;16.74;100.00
21863;BME280;11096;51.338;12.524;2023-08-07T01:57:29;99020.47;;;16.85;100.00
21863;BME280;11096;51.338;12.524;2023-08-07T01:59:56;99030.00;;;16.86;100.00
21863;BME280;11096;51.338;12.524;2023-08-07T02:02:21;99032.63;;;16.86;100.00
21863;BME280;11096;51.338;12.524;2023-08-07T02:04:47;99040.09;;;16.58;100.00
21863;BME280;11096;51.338;12.524;2023-08-07T02:07:12;99039.34;;;16.81;100.00
21863;BME280;11096;51.338;12.524;2023-08-07T02:09:37;99037.88;;;16.78;100.00
21863;BME280;11096;51.338;12.524;2023-08-07T02:12:03;99035.94;;;16.72;100.00
21863;BME280;11096;51.338;12.524;2023-08-07T02:14:29;99030.09;;;16.62;100.00
21863;BME280;11096;51.338;12.524;2023-08-07T02:16:54;99039.22;;;16.74;100.00
21863;BME280;11096;51.338;12.524;2023-08-07T02:19:19;99036.91;;;16.71;100.00
21863;BME280;11096;51.338;12.524;2023-08-07T02:21:45;99040.53;;;16.70;100.00
21863;BME280;11096;51.338;12.524;2023-08-07T02:24:10;99036.81;;;16.56;100.00
21863;BME280;11096;51.338;12.524;2023-08-07T02:26:35;99046.16;;;16.59;100.00
21863;BME280;11096;51.338;12.524;2023-08-07T02:29:01;99047.88;;;16.43;100.00
21863;BME280;11096;51.338;12.524;2023-08-07T02:31:28;99055.03;;;16.58;100.00
21863;BME280;11096;51.338;12.524;2023-08-07T02:33:53;99060.06;;;16.67;100.00
21863;BME280;11096;51.338;12.524;2023-08-07T02:36:18;99063.25;;;16.46;100.00
21863;BME280;11096;51.338;12.524;2023-08-07T02:38:44;99062.53;;;16.69;100.00
21863;BME280;11096;51.338;12.524;2023-08-07T02:41:09;99066.88;;;16.45;100.00
21863;BME280;11096;51.338;12.524;2023-08-07T02:43:35;99076.19;;;16.48;100.00
21863;BME280;11096;51.338;12.524;2023-08-07T02:46:00;99081.69;;;16.30;100.00
21863;BME280;11096;51.338;12.524;2023-08-07T02:48:25;99085.41;;;16.36;100.00
21863;BME280;11096;51.338;12.524;2023-08-07T02:50:51;99083.63;;;16.36;100.00
21863;BME280;11096;51.338;12.524;2023-08-07T02:53:19;99082.38;;;16.63;100.00
21863;BME280;11096;51.338;12.524;2023-08-07T02:55:44;99085.47;;;16.67;100.00
21863;BME280;11096;51.338;12.524;2023-08-07T02:58:10;99085.81;;;16.64;100.00
21863;BME280;11096;51.338;12.524;2023-08-07T03:00:35;99079.88;;;16.70;100.00
21863;BME280;11096;51.338;12.524;2023-08-07T03:03:00;99070.03;;;16.72;100.00
21863;BME280;11096;51.338;12.524;2023-08-07T03:05:26;99078.06;;;16.70;100.00
21863;BME280;11096;51.338;12.524;2023-08-07T03:07:51;99070.03;;;16.72;100.00
21863;BME280;11096;51.338;12.524;2023-08-07T03:10:16;99084.47;;;16.76;100.00
21863;BME280;11096;51.338;12.524;2023-08-07T03:12:42;99087.81;;;16.62;100.00
21863;BME280;11096;51.338;12.524;2023-08-07T03:15:07;99074.03;;;16.60;100.00
21863;BME280;11096;51.338;12.524;2023-08-07T03:17:33;99074.38;;;16.57;100.00
21863;BME280;11096;51.338;12.524;2023-08-07T03:19:58;99081.22;;;16.66;100.00
21863;BME280;11096;51.338;12.524;2023-08-07T03:22:24;99083.38;;;16.62;100.00
21863;BME280;11096;51.338;12.524;2023-08-07T03:24:49;99095.38;;;16.57;100.00
21863;BME280;11096;51.338;12.524;2023-08-07T03:27:15;99096.44;;;16.70;100.00
21863;BME280;11096;51.338;12.524;2023-08-07T03:29:40;99099.09;;;16.62;100.00
21863;BME280;11096;51.338;12.524;2023-08-07T03:32:06;99098.97;;;16.56;100.00
21863;BME280;11096;51.338;12.524;2023-08-07T03:34:31;99096.22;;;16.41;100.00
21863;BME280;11096;51.338;12.524;2023-08-07T03:36:57;99105.19;;;16.55;100.00
21863;BME280;11096;51.338;12.524;2023-08-07T03:39:24;99099.34;;;16.36;100.00
21863;BME280;11096;51.338;12.524;2023-08-07T03:41:50;99104.75;;;16.43;100.00
21863;BME280;11096;51.338;12.524;2023-08-07T03:44:16;99106.59;;;16.09;100.00
21863;BME280;11096;51.338;12.524;2023-08-07T03:46:41;99110.53;;;16.30;100.00
21863;BME280;11096;51.338;12.524;2023-08-07T03:49:07;99108.19;;;16.43;100.00
21863;BME280;11096;51.338;12.524;2023-08-07T03:51:32;99114.53;;;16.49;100.00
21863;BME280;11096;51.338;12.524;2023-08-07T03:53:58;99128.81;;;16.46;100.00
21863;BME280;11096;51.338;12.524;2023-08-07T03:56:23;99124.22;;;16.48;100.00
21863;BME280;11096;51.338;12.524;2023-08-07T03:58:49;99123.59;;;16.38;100.00
21863;BME280;11096;51.338;12.524;2023-08-07T04:01:15;99115.38;;;16.41;100.00
21863;BME280;11096;51.338;12.524;2023-08-07T04:03:41;99133.09;;;16.47;100.00
21863;BME280;11096;51.338;12.524;2023-08-07T04:06:06;99116.91;;;16.83;100.00
21863;BME280;11096;51.338;12.524;2023-08-07T04:08:32;99135.06;;;16.45;100.00
21863;BME280;11096;51.338;12.524;2023-08-07T04:11:01;99130.16;;;16.42;100.00
21863;BME280;11096;51.338;12.524;2023-08-07T04:13:27;99125.03;;;16.57;100.00
21863;BME280;11096;51.338;12.524;2023-08-07T04:15:53;99129.16;;;16.51;100.00
21863;BME280;11096;51.338;12.524;2023-08-07T04:18:18;99134.16;;;16.61;100.00
21863;BME280;11096;51.338;12.524;2023-08-07T04:23:17;99135.16;;;16.60;100.00
21863;BME280;11096;51.338;12.524;2023-08-07T04:25:43;99136.78;;;16.61;100.00
21863;BME280;11096;51.338;12.524;2023-08-07T04:28:08;99136.94;;;16.76;100.00
21863;BME280;11096;51.338;12.524;2023-08-07T04:30:34;99139.25;;;16.63;100.00
21863;BME280;11096;51.338;12.524;2023-08-07T04:32:59;99142.84;;;16.70;100.00
21863;BME280;11096;51.338;12.524;2023-08-07T04:35:25;99140.59;;;16.98;100.00
21863;BME280;11096;51.338;12.524;2023-08-07T04:37:50;99139.44;;;17.09;96.76
21863;BME280;11096;51.338;12.524;2023-08-07T04:40:15;99140.16;;;17.26;93.93
21863;BME280;11096;51.338;12.524;2023-08-07T04:42:41;99144.16;;;17.13;91.21
21863;BME280;11096;51.338;12.524;2023-08-07T04:45:07;99151.94;;;17.30;89.08
21863;BME280;11096;51.338;12.524;2023-08-07T04:47:32;99145.66;;;17.08;87.66
21863;BME280;11096;51.338;12.524;2023-08-07T04:49:57;99152.56;;;17.09;87.05
21863;BME280;11096;51.338;12.524;2023-08-07T04:52:23;99155.78;;;17.19;86.38
21863;BME280;11096;51.338;12.524;2023-08-07T04:54:48;99147.75;;;16.81;87.05
21863;BME280;11096;51.338;12.524;2023-08-07T04:57:13;99149.66;;;16.95;86.84
21863;BME280;11096;51.338;12.524;2023-08-07T04:59:39;99149.72;;;17.19;85.64
21863;BME280;11096;51.338;12.524;2023-08-07T05:02:05;99151.81;;;17.23;85.10
21863;BME280;11096;51.338;12.524;2023-08-07T05:04:30;99156.16;;;17.08;84.43
21863;BME280;11096;51.338;12.524;2023-08-07T05:06:55;99156.41;;;17.52;83.46
21863;BME280;11096;51.338;12.524;2023-08-07T05:09:21;99157.63;;;17.65;82.29
21863;BME280;11096;51.338;12.524;2023-08-07T05:11:46;99154.31;;;17.48;81.09
21863;BME280;11096;51.338;12.524;2023-08-07T05:14:12;99152.25;;;17.58;81.59
21863;BME280;11096;51.338;12.524;2023-08-07T05:16:37;99157.69;;;17.56;80.78
21863;BME280;11096;51.338;12.524;2023-08-07T05:19:02;99163.88;;;17.41;81.16
21863;BME280;11096;51.338;12.524;2023-08-07T05:21:28;99166.22;;;17.58;80.55
21863;BME280;11096;51.338;12.524;2023-08-07T05:23:53;99161.41;;;17.39;80.30
21863;BME280;11096;51.338;12.524;2023-08-07T05:26:21;99167.88;;;17.74;79.98
21863;BME280;11096;51.338;12.524;2023-08-07T05:28:46;99167.56;;;17.77;79.31
21863;BME280;11096;51.338;12.524;2023-08-07T05:31:12;99168.03;;;17.81;79.25
21863;BME280;11096;51.338;12.524;2023-08-07T05:33:37;99166.06;;;17.52;78.79
21863;BME280;11096;51.338;12.524;2023-08-07T05:36:02;99173.13;;;17.74;78.45
21863;BME280;11096;51.338;12.524;2023-08-07T05:38:28;99168.53;;;17.85;78.37
21863;BME280;11096;51.338;12.524;2023-08-07T05:40:53;99179.38;;;17.81;77.85
21863;BME280;11096;51.338;12.524;2023-08-07T05:43:19;99176.41;;;17.76;78.24
21863;BME280;11096;51.338;12.524;2023-08-07T05:45:44;99164.97;;;17.69;78.98
21863;BME280;11096;51.338;12.524;2023-08-07T05:48:11;99178.56;;;18.04;77.94
21863;BME280;11096;51.338;12.524;2023-08-07T05:50:37;99177.81;;;18.10;77.29
21863;BME280;11096;51.338;12.524;2023-08-07T05:53:02;99194.44;;;17.88;77.60
21863;BME280;11096;51.338;12.524;2023-08-07T05:55:28;99186.06;;;17.61;77.32
21863;BME280;11096;51.338;12.524;2023-08-07T05:57:53;99193.78;;;17.86;77.01
21863;BME280;11096;51.338;12.524;2023-08-07T06:00:19;99197.34;;;17.93;76.56
21863;BME280;11096;51.338;12.524;2023-08-07T06:02:45;99194.78;;;18.08;76.58
21863;BME280;11096;51.338;12.524;2023-08-07T06:05:11;99189.91;;;18.19;76.18
21863;BME280;11096;51.338;12.524;2023-08-07T06:07:38;99188.94;;;18.35;75.44
21863;BME280;11096;51.338;12.524;2023-08-07T06:10:05;99199.53;;;18.27;74.73
21863;BME280;11096;51.338;12.524;2023-08-07T06:12:30;99202.34;;;18.26;75.33
21863;BME280;11096;51.338;12.524;2023-08-07T06:14:55;99200.84;;;18.08;75.79
21863;BME280;11096;51.338;12.524;2023-08-07T06:17:21;99207.47;;;18.04;75.82
21863;BME280;11096;51.338;12.524;2023-08-07T06:19:46;99208.31;;;18.19;74.84
21863;BME280;11096;51.338;12.524;2023-08-07T06:22:12;99212.78;;;18.19;75.06
21863;BME280;11096;51.338;12.524;2023-08-07T06:24:37;99214.69;;;18.40;74.16
21863;BME280;11096;51.338;12.524;2023-08-07T06:27:03;99220.75;;;18.26;74.67
21863;BME280;11096;51.338;12.524;2023-08-07T06:29:28;99222.25;;;18.05;74.74
21863;BME280;11096;51.338;12.524;2023-08-07T06:31:53;99230.31;;;17.80;75.00
21863;BME280;11096;51.338;12.524;2023-08-07T06:34:19;99229.41;;;18.11;75.42
21863;BME280;11096;51.338;12.524;2023-08-07T06:36:44;99230.88;;;17.91;75.30
21863;BME280;11096;51.338;12.524;2023-08-07T06:39:10;99239.31;;;17.78;75.58
21863;BME280;11096;51.338;12.524;2023-08-07T06:41:35;99240.81;;;18.03;75.37
21863;BME280;11096;51.338;12.524;2023-08-07T06:44:01;99232.50;;;18.15;74.51
21863;BME280;11096;51.338;12.524;2023-08-07T06:46:26;99232.41;;;18.08;74.13
21863;BME280;11096;51.338;12.524;2023-08-07T06:48:53;99230.25;;;18.12;73.34
21863;BME280;11096;51.338;12.524;2023-08-07T06:51:18;99232.97;;;18.18;73.06
21863;BME280;11096;51.338;12.524;2023-08-07T06:53:44;99234.97;;;18.54;72.46
21863;BME280;11096;51.338;12.524;2023-08-07T06:56:09;99231.13;;;18.42;72.18
21863;BME280;11096;51.338;12.524;2023-08-07T06:58:35;99240.81;;;18.94;71.75
21863;BME280;11096;51.338;12.524;2023-08-07T07:01:00;99240.41;;;18.67;71.25
21863;BME280;11096;51.338;12.524;2023-08-07T07:03:25;99234.19;;;18.98;70.27
21863;BME280;11096;51.338;12.524;2023-08-07T07:05:51;99243.63;;;19.22;69.62
21863;BME280;11096;51.338;12.524;2023-08-07T07:08:16;99249.41;;;19.47;69.30
21863;BME280;11096;51.338;12.524;2023-08-07T07:10:41;99243.81;;;19.93;68.59
21863;BME280;11096;51.338;12.524;2023-08-07T07:13:07;99252.44;;;19.66;68.00
21863;BME280;11096;51.338;12.524;2023-08-07T07:15:34;99255.41;;;19.41;68.07
21863;BME280;11096;51.338;12.524;2023-08-07T07:18:01;99250.38;;;19.46;68.56
21863;BME280;11096;51.338;12.524;2023-08-07T07:20:26;99259.00;;;19.55;68.76
21863;BME280;11096;51.338;12.524;2023-08-07T07:22:52;99261.47;;;19.42;67.89
21863;BME280;11096;51.338;12.524;2023-08-07T07:25:17;99260.34;;;19.66;67.52
21863;BME280;11096;51.338;12.524;2023-08-07T07:27:43;99264.28;;;19.55;66.82
21863;BME280;11096;51.338;12.524;2023-08-07T07:30:09;99261.16;;;19.66;66.88
21863;BME280;11096;51.338;12.524;2023-08-07T07:32:34;99267.59;;;19.79;66.30
21863;BME280;11096;51.338;12.524;2023-08-07T07:35:00;99268.31;;;20.09;66.48
21863;BME280;11096;51.338;12.524;2023-08-07T07:37:25;99273.22;;;20.12;65.59
21863;BME280;11096;51.338;12.524;2023-08-07T07:39:50;99274.81;;;20.34;65.08
21863;BME280;11096;51.338;12.524;2023-08-07T07:42:16;99262.41;;;20.07;64.73
21863;BME280;11096;51.338;12.524;2023-08-07T07:44:41;99261.47;;;20.64;63.81
21863;BME280;11096;51.338;12.524;2023-08-07T07:47:08;99280.19;;;20.63;64.35
21863;BME280;11096;51.338;12.524;2023-08-07T07:49:33;99279.78;;;20.23;64.85
21863;BME280;11096;51.338;12.524;2023-08-07T07:51:59;99281.38;;;20.38;64.87
21863;BME280;11096;51.338;12.524;2023-08-07T07:54:25;99291.16;;;20.66;65.00
21863;BME280;11096;51.338;12.524;2023-08-07T07:56:50;99249.31;;;20.63;63.68
21863;BME280;11096;51.338;12.524;2023-08-07T07:59:16;99273.47;;;20.95;63.20
21863;BME280;11096;51.338;12.524;2023-08-07T08:01:41;99282.41;;;20.94;62.49
21863;BME280;11096;51.338;12.524;2023-08-07T08:04:07;99283.75;;;20.55;62.90
21863;BME280;11096;51.338;12.524;2023-08-07T08:06:32;99287.00;;;20.57;62.90
21863;BME280;11096;51.338;12.524;2023-08-07T08:08:57;99297.06;;;20.25;62.45
21863;BME280;11096;51.338;12.524;2023-08-07T08:11:24;99290.72;;;20.20;62.75
21863;BME280;11096;51.338;12.524;2023-08-07T08:13:50;99286.75;;;20.73;62.56
21863;BME280;11096;51.338;12.524;2023-08-07T08:16:15;99282.84;;;20.69;62.09
21863;BME280;11096;51.338;12.524;2023-08-07T08:18:40;99290.25;;;21.15;62.23
21863;BME280;11096;51.338;12.524;2023-08-07T08:21:06;99282.34;;;21.57;59.46
21863;BME280;11096;51.338;12.524;2023-08-07T08:23:32;99287.59;;;21.15;59.55
21863;BME280;11096;51.338;12.524;2023-08-07T08:25:57;99300.00;;;21.15;59.26
21863;BME280;11096;51.338;12.524;2023-08-07T08:28:22;99288.19;;;21.46;59.62
21863;BME280;11096;51.338;12.524;2023-08-07T08:30:48;99302.56;;;21.91;58.83
21863;BME280;11096;51.338;12.524;2023-08-07T08:33:13;99290.44;;;21.55;58.71
21863;BME280;11096;51.338;12.524;2023-08-07T08:35:40;99297.66;;;21.33;59.97
21863;BME280;11096;51.338;12.524;2023-08-07T08:38:06;99303.44;;;21.50;59.08
21863;BME280;11096;51.338;12.524;2023-08-07T08:40:31;99309.88;;;20.99;60.55
21863;BME280;11096;51.338;12.524;2023-08-07T08:43:00;99312.88;;;20.90;60.94
21863;BME280;11096;51.338;12.524;2023-08-07T08:45:27;99320.75;;;20.62;61.79
21863;BME280;11096;51.338;12.524;2023-08-07T08:47:55;99320.25;;;20.51;62.02
21863;BME280;11096;51.338;12.524;2023-08-07T08:50:25;99325.69;;;20.50;64.27
21863;BME280;11096;51.338;12.524;2023-08-07T08:52:53;99322.19;;;20.43;63.21
21863;BME280;11096;51.338;12.524;2023-08-07T08:55:20;99330.28;;;20.56;63.67
21863;BME280;11096;51.338;12.524;2023-08-07T08:57:46;99323.72;;;21.08;61.78
21863;BME280;11096;51.338;12.524;2023-08-07T09:00:14;99325.44;;;21.57;60.17
21863;BME280;11096;51.338;12.524;2023-08-07T09:02:51;99310.59;;;22.31;58.06
21863;BME280;11096;51.338;12.524;2023-08-07T09:05:18;99313.31;;;21.83;57.75
21863;BME280;11096;51.338;12.524;2023-08-07T09:07:45;99316.34;;;21.32;58.24
21863;BME280;11096;51.338;12.524;2023-08-07T09:10:12;99322.53;;;21.39;59.02
21863;BME280;11096;51.338;12.524;2023-08-07T09:12:40;99319.00;;;20.97;59.99
21863;BME280;11096;51.338;12.524;2023-08-07T09:15:08;99333.59;;;20.93;59.70
21863;BME280;11096;51.338;12.524;2023-08-07T09:17:39;99334.00;;;20.04;66.16
21863;BME280;11096;51.338;12.524;2023-08-07T09:20:06;99343.97;;;19.57;68.92
21863;BME280;11096;51.338;12.524;2023-08-07T09:22:35;99347.16;;;19.52;70.54
21863;BME280;11096;51.338;12.524;2023-08-07T09:25:01;99344.50;;;20.40;68.86
21863;BME280;11096;51.338;12.524;2023-08-07T09:27:26;99356.81;;;20.54;67.83
21863;BME280;11096;51.338;12.524;2023-08-07T09:29:54;99361.59;;;20.44;68.93
21863;BME280;11096;51.338;12.524;2023-08-07T09:32:20;99350.03;;;20.67;66.60
21863;BME280;11096;51.338;12.524;2023-08-07T09:34:48;99346.34;;;20.89;64.86
21863;BME280;11096;51.338;12.524;2023-08-07T09:37:14;99352.31;;;20.98;63.39
21863;BME280;11096;51.338;12.524;2023-08-07T09:39:40;99353.25;;;21.18;64.34
21863;BME280;11096;51.338;12.524;2023-08-07T09:42:15;99346.06;;;22.50;60.92
21863;BME280;11096;51.338;12.524;2023-08-07T09:44:42;99346.06;;;22.70;60.92
21863;BME280;11096;51.338;12.524;2023-08-07T09:47:18;99336.06;;;24.22;55.63
21863;BME280;11096;51.338;12.524;2023-08-07T09:49:45;99340.25;;;23.53;55.85
21863;BME280;11096;51.338;12.524;2023-08-07T09:52:12;99340.66;;;23.50;55.35
21863;BME280;11096;51.338;12.524;2023-08-07T09:54:41;99349.50;;;23.10;57.49
21863;BME280;11096;51.338;12.524;2023-08-07T09:57:07;99338.53;;;23.07;57.64
21863;BME280;11096;51.338;12.524;2023-08-07T09:59:34;99336.69;;;22.81;56.02
21863;BME280;11096;51.338;12.524;2023-08-07T10:02:01;99335.56;;;25.07;52.67
21863;BME280;11096;51.338;12.524;2023-08-07T10:04:30;99317.03;;;23.87;52.74
21863;BME280;11096;51.338;12.524;2023-08-07T10:06:56;99331.00;;;22.77;54.45
21863;BME280;11096;51.338;12.524;2023-08-07T10:09:22;99333.44;;;22.45;57.60
21863;BME280;11096;51.338;12.524;2023-08-07T10:11:51;99347.44;;;21.64;59.84
21863;BME280;11096;51.338;12.524;2023-08-07T10:14:17;99353.47;;;20.89;63.87
21863;BME280;11096;51.338;12.524;2023-08-07T10:16:43;99364.84;;;20.25;65.83
21863;BME280;11096;51.338;12.524;2023-08-07T10:19:10;99379.47;;;19.91;67.62
21863;BME280;11096;51.338;12.524;2023-08-07T10:21:38;99390.00;;;20.06;68.15
21863;BME280;11096;51.338;12.524;2023-08-07T10:24:05;99377.25;;;19.73;68.04
21863;BME280;11096;51.338;12.524;2023-08-07T10:26:33;99374.88;;;19.78;68.35
21863;BME280;11096;51.338;12.524;2023-08-07T10:29:00;99378.88;;;19.89;68.08
21863;BME280;11096;51.338;12.524;2023-08-07T10:31:28;99372.75;;;19.88;68.01
21863;BME280;11096;51.338;12.524;2023-08-07T10:33:55;99384.97;;;19.89;67.84
21863;BME280;11096;51.338;12.524;2023-08-07T10:36:20;99386.63;;;20.70;69.16
21863;BME280;11096;51.338;12.524;2023-08-07T10:38:49;99390.56;;;21.02;69.81
21863;BME280;11096;51.338;12.524;2023-08-07T10:41:18;99378.84;;;21.81;66.50
21863;BME280;11096;51.338;12.524;2023-08-07T10:43:44;99379.47;;;22.71;63.96
21863;BME280;11096;51.338;12.524;2023-08-07T10:46:15;99374.19;;;22.84;62.85
21863;BME280;11096;51.338;12.524;2023-08-07T10:48:42;99367.63;;;22.93;59.65
21863;BME280;11096;51.338;12.524;2023-08-07T10:51:08;99368.88;;;23.18;60.12
21863;BME280;11096;51.338;12.524;2023-08-07T10:53:39;99374.78;;;23.26;59.67
21863;BME280;11096;51.338;12.524;2023-08-07T10:56:08;99369.53;;;22.05;60.09
21863;BME280;11096;51.338;12.524;2023-08-07T10:58:36;99376.41;;;21.16;64.42
21863;BME280;11096;51.338;12.524;2023-08-07T11:03:59;99371.72;;;22.76;59.75
21863;BME280;11096;51.338;12.524;2023-08-07T11:06:30;99367.81;;;22.32;59.59
21863;BME280;11096;51.338;12.524;2023-08-07T11:09:00;99370.28;;;21.85;60.71
21863;BME280;11096;51.338;12.524;2023-08-07T11:11:27;99355.66;;;21.90;60.17
21863;BME280;11096;51.338;12.524;2023-08-07T11:13:52;99358.75;;;21.93;58.72
21863;BME280;11096;51.338;12.524;2023-08-07T11:16:18;99358.59;;;21.25;60.00
21863;BME280;11096;51.338;12.524;2023-08-07T11:18:46;99374.53;;;20.39;65.86
21863;BME280;11096;51.338;12.524;2023-08-07T11:21:12;99382.28;;;20.84;65.26
21863;BME280;11096;51.338;12.524;2023-08-07T11:23:39;99384.50;;;20.22;70.27
21863;BME280;11096;51.338;12.524;2023-08-07T11:26:04;99387.34;;;19.84;73.75
21863;BME280;11096;51.338;12.524;2023-08-07T11:28:30;99378.19;;;20.81;70.14
21863;BME280;11096;51.338;12.524;2023-08-07T11:30:57;99370.56;;;20.93;68.65
21863;BME280;11096;51.338;12.524;2023-08-07T11:33:27;99369.09;;;20.62;68.07
21863;BME280;11096;51.338;12.524;2023-08-07T11:35:53;99376.25;;;20.68;66.62
21863;BME280;11096;51.338;12.524;2023-08-07T11:38:39;99377.16;;;20.82;66.27
21863;BME280;11096;51.338;12.524;2023-08-07T11:41:06;99369.16;;;22.01;65.41
21863;BME280;11096;51.338;12.524;2023-08-07T11:43:33;99361.53;;;23.26;61.76
21863;BME280;11096;51.338;12.524;2023-08-07T11:46:03;99350.44;;;23.56;58.38
21863;BME280;11096;51.338;12.524;2023-08-07T11:48:31;99351.69;;;24.69;56.91
21863;BME280;11096;51.338;12.524;2023-08-07T11:50:57;99350.50;;;24.26;55.23
21863;BME280;11096;51.338;12.524;2023-08-07T11:53:24;99358.44;;;24.33;54.19
21863;BME280;11096;51.338;12.524;2023-08-07T11:55:55;99367.44;;;22.88;55.94
21863;BME280;11096;51.338;12.524;2023-08-07T11:58:21;99361.28;;;22.21;57.55
21863;BME280;11096;51.338;12.524;2023-08-07T12:00:47;99362.38;;;23.72;55.54
21863;BME280;11096;51.338;12.524;2023-08-07T12:03:40;99354.19;;;23.87;53.05
21863;BME280;11096;51.338;12.524;2023-08-07T12:06:08;99352.88;;;25.16;51.86
21863;BME280;11096;51.338;12.524;2023-08-07T12:08:38;99333.63;;;25.39;48.67
21863;BME280;11096;51.338;12.524;2023-08-07T12:11:06;99360.28;;;24.64;51.53
21863;BME280;11096;51.338;12.524;2023-08-07T12:13:31;99348.56;;;24.08;51.98
21863;BME280;11096;51.338;12.524;2023-08-07T12:16:00;99360.69;;;23.39;53.45
21863;BME280;11096;51.338;12.524;2023-08-07T12:18:26;99341.44;;;21.97;55.59
21863;BME280;11096;51.338;12.524;2023-08-07T12:20:59;99346.66;;;21.36;58.84
21863;BME280;11096;51.338;12.524;2023-08-07T12:23:25;99385.31;;;20.59;65.18
21863;BME280;11096;51.338;12.524;2023-08-07T12:25:50;99376.72;;;21.00;65.86
21863;BME280;11096;51.338;12.524;2023-08-07T12:28:17;99371.56;;;21.48;65.66
21863;BME280;11096;51.338;12.524;2023-08-07T12:30:44;99353.84;;;21.42;64.13
21863;BME280;11096;51.338;12.524;2023-08-07T12:33:11;99364.88;;;21.52;64.37
21863;BME280;11096;51.338;12.524;2023-08-07T12:35:36;99362.63;;;22.04;63.04
21863;BME280;11096;51.338;12.524;2023-08-07T12:38:02;99362.75;;;23.17;59.71
21863;BME280;11096;51.338;12.524;2023-08-07T12:40:29;99362.13;;;22.42;58.84
21863;BME280;11096;51.338;12.524;2023-08-07T12:42:55;99357.91;;;21.93;59.49
21863;BME280;11096;51.338;12.524;2023-08-07T12:45:21;99385.75;;;21.12;62.98
21863;BME280;11096;51.338;12.524;2023-08-07T12:47:46;99392.00;;;20.40;64.87
21863;BME280;11096;51.338;12.524;2023-08-07T12:50:11;99389.53;;;18.98;70.39
21863;BME280;11096;51.338;12.524;2023-08-07T12:52:37;99418.03;;;18.49;72.19